To NAV CANADA Home Page Login to a new session Search on AWWS site Disclaimer Vers la page française équivalente Tips FAQ What's new on the site To the Forecasts and Observations / NOTAM section To "File a Flight Plan" website Publications and other links Update of the User's profile FIC Telephone Numbers My Weather Data Folder Route Weather Data Regional Weather Data Local Weather Data To the Forecasts and Observations / NOTAM section
Request Generated 04/25/2019 at 08:05:01 UTC . Weather information available at that time is displayed.

METAR/TAF

CHARLOTTETOWN/PE    

METAR CYYG 250800Z 07007KT 2 1/2SM -DZ BR BKN004 OVC015 02/02 A2965 RMK SF5ST3 SLP042=
SPECI CYYG 250745Z 07007KT 2 1/2SM -DZ BR BKN004 OVC010 02/02 A2965 RMK SF6ST2 SLP042=
SPECI CYYG 250742Z 08008KT 2 1/2SM -DZ BR BKN004 OVC010 03/03 A2965 RMK SF6ST2 SLP042=
SPECI CYYG 250735Z 07009KT 2 1/2SM -DZ BR SCT004 OVC014 02/02 A2965 RMK SF3ST5 SLP042=
SPECI CYYG 250730Z 08010KT 2 1/2SM -DZ BR SCT004 OVC020 03/03 A2964 RMK SF4SC4 SLP041=
SPECI CYYG 250717Z 07008KT 2 1/2SM -DZ BR OVC004 02/02 A2965 RMK SF8 SLP042=
METAR CYYG 250700Z 07007KT 2 1/2SM -DZ BR OVC004 03/03 A2964 RMK SF8 SLP041=
METAR CYYG 250600Z 09011KT 2 1/2SM -DZ BR OVC004 03/03 A2963 RMK SF8 SLP038=

TAF CYYG 250538Z 2506/2518 08010KT 2SM -RA -DZ BR OVC004 TEMPO
2506/2511 6SM BR SCT004 OVC006 PROB30 2508/2511 3SM -PL BR
FM251100 05010KT 11/2SM -SN -DZ BR BKN003 OVC005 TEMPO 2511/2514
6SM BR SCT003 OVC005 PROB30 2511/2514 3SM -PL BR
FM251400 03012KT 3SM -SN -DZ BR SCT004 BKN008
FM251600 02015KT P6SM SCT008 OVC015
RMK NXT FCST BY 251200Z=
Your time UTC time
Weather data provided by Environment Canada and NAV CANADA